createdAt,value
2019-05-26T00:00:36.828Z,1001.54
2019-05-26T00:01:36.969Z,1001.48
2019-05-26T00:02:36.909Z,1001.49
2019-05-26T00:03:36.821Z,1001.47
2019-05-26T00:04:36.855Z,1001.49
2019-05-26T00:05:36.970Z,1001.48
2019-05-26T00:06:36.937Z,1001.51
2019-05-26T00:07:36.941Z,1001.47
2019-05-26T00:08:36.887Z,1001.49
2019-05-26T00:09:37.012Z,1001.55
2019-05-26T00:10:36.914Z,1001.47
2019-05-26T00:11:36.934Z,1001.51
2019-05-26T00:12:36.952Z,1001.56
2019-05-26T00:13:37.023Z,1001.53
2019-05-26T00:14:36.981Z,1001.53
2019-05-26T00:15:36.993Z,1001.54
2019-05-26T00:16:37.014Z,1001.51
2019-05-26T00:17:37.046Z,1001.50
2019-05-26T00:18:37.044Z,1001.47
2019-05-26T00:19:37.055Z,1001.48
2019-05-26T00:20:37.068Z,1001.48
2019-05-26T00:21:37.083Z,1001.48
2019-05-26T00:22:37.176Z,1001.44
2019-05-26T00:23:37.120Z,1001.45
2019-05-26T00:24:37.136Z,1001.44
2019-05-26T00:25:37.151Z,1001.42
2019-05-26T00:26:37.164Z,1001.43
2019-05-26T00:27:37.190Z,1001.35
2019-05-26T00:28:37.193Z,1001.36
2019-05-26T00:29:37.216Z,1001.27
2019-05-26T00:30:37.224Z,1001.26
2019-05-26T00:31:37.244Z,1001.25
2019-05-26T00:32:37.256Z,1001.21
2019-05-26T00:33:37.272Z,1001.21
2019-05-26T00:34:37.286Z,1001.22
2019-05-26T00:35:37.307Z,1001.26
2019-05-26T00:36:37.319Z,1001.27
2019-05-26T00:37:48.546Z,1001.26
2019-05-26T00:38:37.353Z,1001.26
2019-05-26T00:39:37.372Z,1001.26
2019-05-26T00:40:37.389Z,1001.26
2019-05-26T00:41:37.398Z,1001.27
2019-05-26T00:42:37.416Z,1001.25
2019-05-26T00:43:37.431Z,1001.20
2019-05-26T00:44:37.446Z,1001.21
2019-05-26T00:45:37.464Z,1001.21
2019-05-26T00:46:37.478Z,1001.21
2019-05-26T00:47:37.494Z,1001.23
2019-05-26T00:48:37.510Z,1001.21
2019-05-26T00:49:37.537Z,1001.23
2019-05-26T00:50:37.549Z,1001.20
2019-05-26T00:51:37.557Z,1001.19
2019-05-26T00:52:37.569Z,1001.21
2019-05-26T00:53:37.589Z,1001.20
2019-05-26T00:54:37.603Z,1001.21
2019-05-26T00:55:37.618Z,1001.22
2019-05-26T00:56:37.636Z,1001.19
2019-05-26T00:57:37.657Z,1001.15
2019-05-26T00:58:37.666Z,1001.14
2019-05-26T00:59:37.681Z,1001.17
2019-05-26T01:00:37.699Z,1001.17
2019-05-26T01:01:37.718Z,1001.15
2019-05-26T01:02:37.727Z,1001.16
2019-05-26T01:03:37.744Z,1001.15
2019-05-26T01:04:37.761Z,1001.12
2019-05-26T01:05:37.778Z,1001.09
2019-05-26T01:06:37.793Z,1001.12
2019-05-26T01:07:37.814Z,1001.14
2019-05-26T01:08:37.824Z,1001.12
2019-05-26T01:09:37.839Z,1001.11
2019-05-26T01:10:37.853Z,1001.13
2019-05-26T01:11:37.872Z,1001.13
2019-05-26T01:12:37.891Z,1001.11
2019-05-26T01:13:37.899Z,1001.09
2019-05-26T01:14:37.916Z,1001.10
2019-05-26T01:15:37.935Z,1001.11
2019-05-26T01:16:37.949Z,1001.09
2019-05-26T01:17:37.965Z,1001.07
2019-05-26T01:18:37.980Z,1001.07
2019-05-26T01:19:38.001Z,1001.10
2019-05-26T01:20:38.014Z,1001.07
2019-05-26T01:21:38.031Z,1001.13
2019-05-26T01:22:38.044Z,1001.06
2019-05-26T01:23:38.061Z,1001.08
2019-05-26T01:24:38.082Z,1001.03
2019-05-26T01:25:38.094Z,1001.02
2019-05-26T01:26:38.111Z,1001.01
2019-05-26T01:27:38.130Z,1001.08
2019-05-26T01:28:38.150Z,1001.04
2019-05-26T01:29:38.159Z,1001.03
2019-05-26T01:30:38.182Z,1001.01
2019-05-26T01:31:38.193Z,1001.06
2019-05-26T01:32:38.215Z,1001.01
2019-05-26T01:33:38.224Z,1001.01
2019-05-26T01:34:38.237Z,1000.99
2019-05-26T01:35:38.260Z,1000.96
2019-05-26T01:36:38.276Z,1001.00
2019-05-26T01:37:38.285Z,1000.94
2019-05-26T01:38:38.301Z,1000.92
2019-05-26T01:39:38.317Z,1000.96
2019-05-26T01:40:38.335Z,1000.91
2019-05-26T01:41:38.351Z,1000.91
2019-05-26T01:42:38.367Z,1000.89
2019-05-26T01:43:38.382Z,1000.89
2019-05-26T01:44:38.401Z,1000.87
2019-05-26T01:45:38.415Z,1000.87
2019-05-26T01:46:38.432Z,1000.84
2019-05-26T01:47:38.449Z,1000.88
2019-05-26T01:48:38.466Z,1000.91
2019-05-26T01:49:38.482Z,1000.88
2019-05-26T01:50:38.508Z,1000.93
2019-05-26T01:51:38.514Z,1000.90
2019-05-26T01:52:38.530Z,1000.91
2019-05-26T01:53:38.548Z,1000.91
2019-05-26T01:54:40.880Z,1000.97
2019-05-26T01:55:38.583Z,1000.94
2019-05-26T01:56:38.592Z,1000.93
2019-05-26T01:57:38.608Z,1000.96
2019-05-26T01:58:38.623Z,1000.97
2019-05-26T01:59:38.642Z,1000.97
2019-05-26T02:00:38.654Z,1000.95
2019-05-26T02:01:38.673Z,1000.99
2019-05-26T02:02:38.689Z,1000.97
2019-05-26T02:03:38.704Z,1000.95
2019-05-26T02:04:38.721Z,1001.01
2019-05-26T02:05:38.747Z,1000.94
2019-05-26T02:06:38.753Z,1000.95
2019-05-26T02:07:38.770Z,1000.94
2019-05-26T02:08:39.938Z,1000.97
2019-05-26T02:09:38.807Z,1000.94
2019-05-26T02:10:38.821Z,1000.99
2019-05-26T02:11:38.834Z,1000.95
2019-05-26T02:12:38.852Z,1001.02
2019-05-26T02:13:38.866Z,1000.95
2019-05-26T02:14:38.884Z,1000.98
2019-05-26T02:15:38.899Z,1000.98
2019-05-26T02:16:38.915Z,1000.97
2019-05-26T02:17:38.931Z,1000.96
2019-05-26T02:18:38.945Z,1000.94
2019-05-26T02:19:38.962Z,1000.92
2019-05-26T02:20:38.977Z,1000.93
2019-05-26T02:21:38.991Z,1000.94
2019-05-26T02:22:39.009Z,1000.92
2019-05-26T02:23:39.025Z,1000.91
2019-05-26T02:24:39.039Z,1000.90
2019-05-26T02:25:39.057Z,1000.89
2019-05-26T02:26:39.071Z,1000.89
2019-05-26T02:27:39.092Z,1000.89
2019-05-26T02:28:39.105Z,1000.89
2019-05-26T02:29:39.120Z,1000.89
2019-05-26T02:30:39.137Z,1000.89
2019-05-26T02:31:39.152Z,1000.92
2019-05-26T02:32:39.164Z,1000.91
2019-05-26T02:33:39.182Z,1000.89
2019-05-26T02:34:39.206Z,1000.90
2019-05-26T02:35:39.218Z,1000.93
2019-05-26T02:36:39.237Z,1000.90
2019-05-26T02:37:39.252Z,1000.89
2019-05-26T02:38:57.409Z,1000.87
2019-05-26T02:39:39.279Z,1000.87
2019-05-26T02:40:39.294Z,1000.88
2019-05-26T02:41:39.313Z,1000.88
2019-05-26T02:42:39.327Z,1000.90
2019-05-26T02:43:39.347Z,1000.88
2019-05-26T02:44:39.358Z,1000.93
2019-05-26T02:45:39.373Z,1000.90
2019-05-26T02:46:39.384Z,1000.88
2019-05-26T02:47:39.408Z,1000.86
2019-05-26T02:48:39.433Z,1000.86
2019-05-26T02:49:39.461Z,1000.81
2019-05-26T02:50:39.452Z,1000.83
2019-05-26T02:51:39.485Z,1000.84
2019-05-26T02:52:39.485Z,1000.82
2019-05-26T02:53:39.504Z,1000.84
2019-05-26T02:54:39.516Z,1000.84
2019-05-26T02:55:39.539Z,1000.83
2019-05-26T02:56:39.555Z,1000.87
2019-05-26T02:57:39.565Z,1000.85
2019-05-26T02:58:39.584Z,1000.86
2019-05-26T02:59:39.598Z,1000.83
2019-05-26T03:00:39.630Z,1000.83
2019-05-26T03:01:58.167Z,1000.82
2019-05-26T03:02:39.644Z,1000.80
2019-05-26T03:03:39.662Z,1000.81
2019-05-26T03:04:39.681Z,1000.75
2019-05-26T03:05:39.693Z,1000.82
2019-05-26T03:06:39.709Z,1000.75
2019-05-26T03:07:39.720Z,1000.78
2019-05-26T03:08:39.744Z,1000.73
2019-05-26T03:09:39.751Z,1000.72
2019-05-26T03:10:39.787Z,1000.72
2019-05-26T03:11:39.802Z,1000.73
2019-05-26T03:12:39.802Z,1000.75
2019-05-26T03:13:39.818Z,1000.71
2019-05-26T03:14:39.837Z,1000.72
2019-05-26T03:15:39.884Z,1000.76
2019-05-26T03:16:39.861Z,1000.77
2019-05-26T03:17:39.882Z,1000.77
2019-05-26T03:18:39.896Z,1000.74
2019-05-26T03:19:39.913Z,1000.76
2019-05-26T03:20:39.934Z,1000.76
2019-05-26T03:21:39.942Z,1000.78
2019-05-26T03:22:39.959Z,1000.76
2019-05-26T03:23:39.971Z,1000.71
2019-05-26T03:24:40.001Z,1000.72
2019-05-26T03:25:40.007Z,1000.66
2019-05-26T03:26:40.020Z,1000.71
2019-05-26T03:27:40.039Z,1000.69
2019-05-26T03:28:40.056Z,1000.69
2019-05-26T03:29:40.109Z,1000.66
2019-05-26T03:30:40.093Z,1000.69
2019-05-26T03:31:40.099Z,1000.65
2019-05-26T03:32:40.207Z,1000.71
2019-05-26T03:33:40.147Z,1000.68
2019-05-26T03:34:40.148Z,1000.69
2019-05-26T03:35:40.165Z,1000.68
2019-05-26T03:36:40.184Z,1000.69
2019-05-26T03:37:40.197Z,1000.67
2019-05-26T03:38:40.211Z,1000.65
2019-05-26T03:39:45.159Z,1000.65
2019-05-26T03:40:40.247Z,1000.69
2019-05-26T03:41:40.257Z,1000.64
2019-05-26T03:42:40.281Z,1000.69
2019-05-26T03:43:40.300Z,1000.69
2019-05-26T03:44:40.307Z,1000.66
2019-05-26T03:45:40.319Z,1000.65
2019-05-26T03:46:40.336Z,1000.69
2019-05-26T03:47:40.355Z,1000.64
2019-05-26T03:48:40.368Z,1000.68
2019-05-26T03:49:40.390Z,1000.68
2019-05-26T03:50:40.400Z,1000.65
2019-05-26T03:51:40.421Z,1000.67
2019-05-26T03:52:40.447Z,1000.66
2019-05-26T03:53:40.449Z,1000.64
2019-05-26T03:54:40.462Z,1000.60
2019-05-26T03:55:40.485Z,1000.64
2019-05-26T03:56:40.502Z,1000.63
2019-05-26T03:57:40.513Z,1000.62
2019-05-26T03:58:40.528Z,1000.58
2019-05-26T03:59:40.544Z,1000.61
2019-05-26T04:00:40.562Z,1000.61
2019-05-26T04:01:40.579Z,1000.61
2019-05-26T04:02:40.595Z,1000.57
2019-05-26T04:03:40.612Z,1000.57
2019-05-26T04:04:40.623Z,1000.57
2019-05-26T04:05:40.641Z,1000.57
2019-05-26T04:06:40.658Z,1000.58
2019-05-26T04:07:40.673Z,1000.60
2019-05-26T04:08:40.701Z,1000.58
2019-05-26T04:09:40.712Z,1000.63
2019-05-26T04:10:40.718Z,1000.63
2019-05-26T04:11:40.736Z,1000.59
2019-05-26T04:12:40.752Z,1000.56
2019-05-26T04:13:40.773Z,1000.59
2019-05-26T04:14:40.796Z,1000.56
2019-05-26T04:15:40.799Z,1000.56
2019-05-26T04:16:40.817Z,1000.59
2019-05-26T04:17:40.855Z,1000.54
2019-05-26T04:18:40.910Z,1000.56
2019-05-26T04:19:40.928Z,1000.56
2019-05-26T04:20:45.594Z,1000.50
2019-05-26T04:21:41.067Z,1000.46
2019-05-26T04:22:40.941Z,1000.50
2019-05-26T04:23:40.993Z,1000.46
2019-05-26T04:24:41.025Z,1000.47
2019-05-26T04:25:41.013Z,1000.45
2019-05-26T04:26:41.009Z,1000.47
2019-05-26T04:27:41.025Z,1000.48
2019-05-26T04:28:41.034Z,1000.51
2019-05-26T04:29:41.031Z,1000.50
2019-05-26T04:30:41.058Z,1000.49
2019-05-26T04:31:41.072Z,1000.46
2019-05-26T04:32:41.097Z,1000.50
2019-05-26T04:33:41.101Z,1000.47
2019-05-26T04:34:41.119Z,1000.53
2019-05-26T04:35:41.127Z,1000.51
2019-05-26T04:36:41.157Z,1000.55
2019-05-26T04:37:41.161Z,1000.55
2019-05-26T04:38:41.172Z,1000.57
2019-05-26T04:39:41.197Z,1000.57
2019-05-26T04:40:41.208Z,1000.55
2019-05-26T04:41:41.235Z,1000.58
2019-05-26T04:42:41.242Z,1000.61
2019-05-26T04:43:41.260Z,1000.63
2019-05-26T04:44:41.278Z,1000.65
2019-05-26T04:45:41.291Z,1000.61
2019-05-26T04:46:41.321Z,1000.61
2019-05-26T04:47:41.326Z,1000.63
2019-05-26T04:48:41.338Z,1000.65
2019-05-26T04:49:41.356Z,1000.65
2019-05-26T04:50:41.373Z,1000.70
2019-05-26T04:51:41.390Z,1000.76
2019-05-26T04:52:41.406Z,1000.84
2019-05-26T04:53:41.426Z,1000.90
2019-05-26T04:54:41.440Z,1000.96
2019-05-26T04:55:41.461Z,1000.95
2019-05-26T04:56:41.487Z,1001.02
2019-05-26T04:57:41.497Z,1001.04
2019-05-26T04:58:41.512Z,1001.05
2019-05-26T04:59:41.531Z,1001.15
2019-05-26T05:00:41.545Z,1001.12
2019-05-26T05:01:41.562Z,1001.16
2019-05-26T05:02:41.586Z,1001.18
2019-05-26T05:03:41.597Z,1001.18
2019-05-26T05:04:41.615Z,1001.21
2019-05-26T05:05:41.634Z,1001.18
2019-05-26T05:06:41.654Z,1001.16
2019-05-26T05:07:41.672Z,1001.08
2019-05-26T05:08:41.697Z,1001.02
2019-05-26T05:09:41.708Z,1000.91
2019-05-26T05:10:42.934Z,1000.87
2019-05-26T05:11:41.749Z,1000.85
2019-05-26T05:12:41.767Z,1000.81
2019-05-26T05:13:41.787Z,1000.79
2019-05-26T05:14:41.810Z,1000.77
2019-05-26T05:15:41.821Z,1000.74
2019-05-26T05:16:41.851Z,1000.75
2019-05-26T05:17:41.862Z,1000.87
2019-05-26T05:18:41.890Z,1000.94
2019-05-26T05:19:41.903Z,1001.00
2019-05-26T05:20:41.925Z,1001.00
2019-05-26T05:21:41.939Z,1001.04
2019-05-26T05:22:41.961Z,1001.08
2019-05-26T05:23:41.983Z,1001.02
2019-05-26T05:24:42.000Z,1000.99
2019-05-26T05:25:42.016Z,1000.98
2019-05-26T05:26:42.039Z,1001.02
2019-05-26T05:27:42.060Z,1000.98
2019-05-26T05:28:42.075Z,1000.99
2019-05-26T05:29:42.096Z,1001.03
2019-05-26T05:30:42.117Z,1000.93
2019-05-26T05:31:42.130Z,1001.01
2019-05-26T05:32:42.150Z,1001.05
2019-05-26T05:33:42.175Z,1001.06
2019-05-26T05:34:42.189Z,1001.03
2019-05-26T05:35:42.207Z,1001.00
2019-05-26T05:36:42.229Z,1001.02
2019-05-26T05:37:42.250Z,1001.00
2019-05-26T05:38:42.270Z,1001.01
2019-05-26T05:39:42.286Z,1001.03
2019-05-26T05:40:58.012Z,1001.02
2019-05-26T05:41:42.331Z,1001.11
2019-05-26T05:42:42.347Z,1001.08
2019-05-26T05:43:42.387Z,1001.14
2019-05-26T05:44:42.391Z,1001.29
2019-05-26T05:45:42.438Z,1001.49
2019-05-26T05:46:42.427Z,1001.63
2019-05-26T05:47:42.460Z,1001.67
2019-05-26T05:48:42.469Z,1001.74
2019-05-26T05:49:42.487Z,1001.61
2019-05-26T05:50:42.518Z,1001.53
2019-05-26T05:51:42.528Z,1001.51
2019-05-26T05:52:42.547Z,1001.32
2019-05-26T05:53:42.567Z,1001.22
2019-05-26T05:54:42.590Z,1001.29
2019-05-26T05:55:42.620Z,1001.43
2019-05-26T05:56:42.629Z,1001.53
2019-05-26T05:57:42.696Z,1001.49
2019-05-26T05:58:42.684Z,1001.45
2019-05-26T05:59:42.699Z,1001.51
2019-05-26T06:00:42.734Z,1001.69
2019-05-26T06:01:42.768Z,1001.72
2019-05-26T06:02:42.755Z,1001.74
2019-05-26T06:03:42.777Z,1001.71
2019-05-26T06:04:42.799Z,1001.79
2019-05-26T06:05:42.825Z,1001.74
2019-05-26T06:06:42.870Z,1001.69
2019-05-26T06:07:42.862Z,1001.73
2019-05-26T06:08:42.885Z,1001.60
2019-05-26T06:09:42.909Z,1001.30
2019-05-26T06:10:42.926Z,1001.40
2019-05-26T06:11:42.949Z,1001.38
2019-05-26T06:12:42.977Z,1001.66
2019-05-26T06:13:42.990Z,1001.50
2019-05-26T06:14:43.012Z,1001.18
2019-05-26T06:15:43.035Z,1001.66
2019-05-26T06:16:43.060Z,1001.13
2019-05-26T06:17:43.075Z,1001.28
2019-05-26T06:18:43.097Z,1000.98
2019-05-26T06:19:43.118Z,1001.76
2019-05-26T06:20:43.142Z,1001.86
2019-05-26T06:21:43.167Z,1001.97
2019-05-26T06:22:43.184Z,1001.97
2019-05-26T06:23:43.207Z,1002.08
2019-05-26T06:24:43.364Z,1002.11
2019-05-26T06:25:43.275Z,1002.23
2019-05-26T06:26:43.269Z,1002.25
2019-05-26T06:27:43.292Z,1002.27
2019-05-26T06:28:43.314Z,1002.22
2019-05-26T06:29:57.961Z,1002.27
2019-05-26T06:30:43.355Z,1002.26
2019-05-26T06:31:43.505Z,1002.36
2019-05-26T06:32:43.543Z,1002.42
2019-05-26T06:33:43.442Z,1002.35
2019-05-26T06:34:43.447Z,1002.30
2019-05-26T06:35:43.473Z,1001.84
2019-05-26T06:36:43.492Z,1001.90
2019-05-26T06:37:43.519Z,1002.01
2019-05-26T06:38:43.538Z,1002.00
2019-05-26T06:39:43.559Z,1002.06
2019-05-26T06:40:43.584Z,1001.90
2019-05-26T06:41:43.608Z,1001.69
2019-05-26T06:42:43.629Z,1001.73
2019-05-26T06:43:43.660Z,1001.82
2019-05-26T06:44:53.119Z,1001.91
2019-05-26T06:45:43.706Z,1001.62
2019-05-26T06:46:43.733Z,1001.81
2019-05-26T06:47:43.741Z,1001.81
2019-05-26T06:48:43.768Z,1001.81
2019-05-26T06:49:43.791Z,1001.72
2019-05-26T06:50:43.815Z,1002.11
2019-05-26T06:51:43.843Z,1001.94
2019-05-26T06:52:43.866Z,1001.99
2019-05-26T06:53:43.882Z,1001.87
2019-05-26T06:54:43.905Z,1002.08
2019-05-26T06:55:43.945Z,1002.01
2019-05-26T06:56:43.952Z,1001.86
2019-05-26T06:57:43.977Z,1001.76
2019-05-26T06:58:44.004Z,1001.57
2019-05-26T06:59:44.034Z,1000.90
2019-05-26T07:00:44.045Z,1000.78
2019-05-26T07:01:44.078Z,1000.95
2019-05-26T07:02:44.104Z,1000.89
2019-05-26T07:03:44.117Z,1000.78
2019-05-26T07:04:44.144Z,1000.85
2019-05-26T07:05:44.162Z,1000.83
2019-05-26T07:06:44.190Z,1000.86
2019-05-26T07:07:44.213Z,1000.82
2019-05-26T07:08:44.229Z,1000.84
2019-05-26T07:09:44.264Z,1000.72
2019-05-26T07:10:44.283Z,1000.65
2019-05-26T07:11:55.508Z,1000.78
2019-05-26T07:12:44.325Z,1000.67
2019-05-26T07:13:44.348Z,1000.69
2019-05-26T07:14:44.364Z,1000.79
2019-05-26T07:15:44.388Z,1001.21
2019-05-26T07:16:44.420Z,1001.30
2019-05-26T07:17:44.433Z,1001.18
2019-05-26T07:18:44.450Z,1001.10
2019-05-26T07:19:44.501Z,1001.24
2019-05-26T07:20:44.502Z,1001.60
2019-05-26T07:21:44.519Z,1001.49
2019-05-26T07:22:44.543Z,1001.46
2019-05-26T07:23:44.568Z,1001.34
2019-05-26T07:24:44.588Z,1001.30
2019-05-26T07:25:44.606Z,1001.30
2019-05-26T07:26:44.628Z,1001.59
2019-05-26T07:27:44.653Z,1001.33
2019-05-26T07:28:44.673Z,1001.21
2019-05-26T07:29:44.719Z,1001.41
2019-05-26T07:30:44.720Z,1001.29
2019-05-26T07:31:44.746Z,1001.67
2019-05-26T07:32:44.764Z,1001.71
2019-05-26T07:33:44.800Z,1001.72
2019-05-26T07:34:44.816Z,1001.81
2019-05-26T07:35:44.832Z,1001.76
2019-05-26T07:36:44.854Z,1001.87
2019-05-26T07:37:44.878Z,1001.88
2019-05-26T07:38:44.912Z,1001.83
2019-05-26T07:39:44.931Z,1001.81
2019-05-26T07:40:44.946Z,1001.84
2019-05-26T07:41:44.973Z,1001.94
2019-05-26T07:42:44.990Z,1001.99
2019-05-26T07:43:45.016Z,1001.85
2019-05-26T07:44:45.039Z,1001.54
2019-05-26T07:45:45.102Z,1001.66
2019-05-26T07:46:45.082Z,1001.18
2019-05-26T07:47:45.118Z,1000.93
2019-05-26T07:48:45.134Z,1000.69
2019-05-26T07:49:45.151Z,1000.66
2019-05-26T07:50:45.177Z,1000.62
2019-05-26T07:51:45.201Z,1000.58
2019-05-26T07:52:45.222Z,1000.57
2019-05-26T07:53:45.248Z,1000.55
2019-05-26T07:54:45.271Z,1000.48
2019-05-26T07:55:45.298Z,1000.46
2019-05-26T07:56:45.328Z,1000.45
2019-05-26T07:57:45.346Z,1000.42
2019-05-26T07:58:45.367Z,1000.40
2019-05-26T07:59:45.411Z,1000.44
2019-05-26T08:00:45.413Z,1000.41
2019-05-26T08:01:45.434Z,1000.33
2019-05-26T08:02:45.463Z,1000.32
2019-05-26T08:03:45.484Z,1000.26
2019-05-26T08:04:45.516Z,1000.34
2019-05-26T08:05:45.532Z,1000.31
2019-05-26T08:06:45.554Z,1000.35
2019-05-26T08:07:45.588Z,1000.24
2019-05-26T08:08:45.603Z,1000.27
2019-05-26T08:09:45.622Z,1000.28
2019-05-26T08:10:45.648Z,1000.25
2019-05-26T08:11:45.674Z,1000.29
2019-05-26T08:12:45.699Z,1000.26
2019-05-26T08:13:45.721Z,1000.26
2019-05-26T08:14:45.752Z,1000.26
2019-05-26T08:15:45.766Z,1000.19
2019-05-26T08:16:45.794Z,1000.18
2019-05-26T08:17:45.812Z,1000.04
2019-05-26T08:18:45.834Z,1000.17
2019-05-26T08:19:45.900Z,1000.19
2019-05-26T08:20:45.887Z,1000.20
2019-05-26T08:21:45.908Z,1000.18
2019-05-26T08:22:45.923Z,1000.23
2019-05-26T08:23:45.948Z,1000.12
2019-05-26T08:24:45.970Z,1000.15
2019-05-26T08:25:46.055Z,1000.20
2019-05-26T08:26:46.067Z,1000.15
2019-05-26T08:27:46.039Z,1000.18
2019-05-26T08:28:46.104Z,1000.23
2019-05-26T08:29:46.090Z,1000.19
2019-05-26T08:30:46.116Z,1000.20
2019-05-26T08:31:46.127Z,1000.17
2019-05-26T08:32:46.171Z,1000.13
2019-05-26T08:33:46.188Z,1000.12
2019-05-26T08:34:46.218Z,1000.09
2019-05-26T08:35:46.221Z,1000.09
2019-05-26T08:36:46.243Z,1000.07
2019-05-26T08:37:46.266Z,1000.12
2019-05-26T08:38:46.287Z,1000.07
2019-05-26T08:39:48.585Z,1000.09
2019-05-26T08:40:46.334Z,1000.05
2019-05-26T08:41:46.388Z,1000.09
2019-05-26T08:42:46.379Z,1000.08
2019-05-26T08:43:46.404Z,1000.08
2019-05-26T08:44:46.420Z,1000.11
2019-05-26T08:45:46.442Z,1000.06
2019-05-26T08:46:46.471Z,1000.04
2019-05-26T08:47:46.489Z,1000.11
2019-05-26T08:48:46.510Z,1000.06
2019-05-26T08:49:46.532Z,1000.03
2019-05-26T08:50:46.554Z,1000.03
2019-05-26T08:51:46.579Z,1000.08
2019-05-26T08:52:46.598Z,1000.08
2019-05-26T08:53:46.626Z,999.98
2019-05-26T08:54:46.639Z,1000.06
2019-05-26T08:55:46.709Z,1000.04
2019-05-26T08:56:46.727Z,1000.00
2019-05-26T08:57:46.846Z,1000.03
2019-05-26T08:58:46.804Z,1000.00
2019-05-26T08:59:46.842Z,1000.00
2019-05-26T09:00:46.846Z,999.97
2019-05-26T09:01:46.846Z,999.94
2019-05-26T09:02:46.861Z,999.95
2019-05-26T09:03:46.853Z,999.94
2019-05-26T09:04:46.864Z,999.93
2019-05-26T09:05:46.884Z,999.96
2019-05-26T09:06:46.915Z,999.97
2019-05-26T09:07:46.940Z,999.92
2019-05-26T09:08:46.958Z,999.94
2019-05-26T09:09:46.970Z,999.99
2019-05-26T09:10:46.998Z,1000.05
2019-05-26T09:11:47.018Z,1000.02
2019-05-26T09:12:59.612Z,1000.04
2019-05-26T09:13:47.065Z,1000.04
2019-05-26T09:14:47.082Z,1000.05
2019-05-26T09:15:47.096Z,1000.08
2019-05-26T09:16:47.121Z,1000.03
2019-05-26T09:17:47.159Z,1000.03
2019-05-26T09:18:47.168Z,999.98
2019-05-26T09:19:47.194Z,999.97
2019-05-26T09:20:47.207Z,999.98
2019-05-26T09:21:47.226Z,999.96
2019-05-26T09:22:47.256Z,999.88
2019-05-26T09:23:47.282Z,999.89
2019-05-26T09:24:47.290Z,999.88
2019-05-26T09:25:47.314Z,999.91
2019-05-26T09:26:47.341Z,999.91
2019-05-26T09:27:47.353Z,999.86
2019-05-26T09:28:47.377Z,999.87
2019-05-26T09:29:47.401Z,999.87
2019-05-26T09:30:47.430Z,999.84
2019-05-26T09:31:47.441Z,999.88
2019-05-26T09:32:47.470Z,999.84
2019-05-26T09:33:47.485Z,999.84
2019-05-26T09:34:47.511Z,999.82
2019-05-26T09:35:47.529Z,999.79
2019-05-26T09:36:47.555Z,999.73
2019-05-26T09:37:47.571Z,999.75
2019-05-26T09:38:47.594Z,999.70
2019-05-26T09:39:47.613Z,999.77
2019-05-26T09:40:47.647Z,999.77
2019-05-26T09:41:47.675Z,999.68
2019-05-26T09:42:47.679Z,999.63
2019-05-26T09:43:47.700Z,999.62
2019-05-26T09:44:47.723Z,999.64
2019-05-26T09:45:47.745Z,999.58
2019-05-26T09:46:47.765Z,999.60
2019-05-26T09:47:47.793Z,999.68
2019-05-26T09:48:47.815Z,999.63
2019-05-26T09:49:47.830Z,999.60
2019-05-26T09:50:47.858Z,999.64
2019-05-26T09:51:47.880Z,999.57
2019-05-26T09:52:47.902Z,999.58
2019-05-26T09:54:00.870Z,999.53
2019-05-26T09:54:47.941Z,999.55
2019-05-26T09:55:47.966Z,999.53
2019-05-26T09:56:47.987Z,999.50
2019-05-26T09:57:48.005Z,999.51
2019-05-26T09:58:48.026Z,999.48
2019-05-26T09:59:48.047Z,999.50
2019-05-26T10:00:48.077Z,999.47
2019-05-26T10:01:48.096Z,999.42
2019-05-26T10:02:48.121Z,999.40
2019-05-26T10:03:48.136Z,999.34
2019-05-26T10:04:48.159Z,999.32
2019-05-26T10:05:48.179Z,999.30
2019-05-26T10:06:48.201Z,999.28
2019-05-26T10:07:48.240Z,999.33
2019-05-26T10:08:48.271Z,999.39
2019-05-26T10:09:48.264Z,999.39
2019-05-26T10:10:48.289Z,999.45
2019-05-26T10:11:48.312Z,999.43
2019-05-26T10:12:48.336Z,999.41
2019-05-26T10:13:48.353Z,999.39
2019-05-26T10:14:48.513Z,999.44
2019-05-26T10:15:48.403Z,999.42
2019-05-26T10:16:48.418Z,999.39
2019-05-26T10:17:48.453Z,999.49
2019-05-26T10:18:48.471Z,999.40
2019-05-26T10:19:48.489Z,999.45
2019-05-26T10:20:48.506Z,999.42
2019-05-26T10:21:48.535Z,999.44
2019-05-26T10:22:48.555Z,999.44
2019-05-26T10:23:48.584Z,999.44
2019-05-26T10:24:48.600Z,999.39
2019-05-26T10:25:48.625Z,999.39
2019-05-26T10:26:48.642Z,999.38
2019-05-26T10:27:48.663Z,999.41
2019-05-26T10:28:48.685Z,999.40
2019-05-26T10:29:48.706Z,999.40
2019-05-26T10:30:48.730Z,999.39
2019-05-26T10:31:48.753Z,999.39
2019-05-26T10:32:48.779Z,999.35
2019-05-26T10:33:48.795Z,999.43
2019-05-26T10:34:48.819Z,999.38
2019-05-26T10:35:48.847Z,999.38
2019-05-26T10:36:48.871Z,999.40
2019-05-26T10:37:48.884Z,999.44
2019-05-26T10:38:48.906Z,999.36
2019-05-26T10:39:48.931Z,999.40
2019-05-26T10:40:48.962Z,999.35
2019-05-26T10:41:48.978Z,999.36
2019-05-26T10:42:49.018Z,999.35
2019-05-26T10:43:49.018Z,999.37
2019-05-26T10:44:49.042Z,999.33
2019-05-26T10:45:49.064Z,999.33
2019-05-26T10:46:49.087Z,999.31
2019-05-26T10:47:49.111Z,999.27
2019-05-26T10:48:49.139Z,999.31
2019-05-26T10:49:49.154Z,999.28
2019-05-26T10:50:49.179Z,999.28
2019-05-26T10:51:49.197Z,999.32
2019-05-26T10:52:49.219Z,999.30
2019-05-26T10:53:49.295Z,999.26
2019-05-26T10:54:49.262Z,999.27
2019-05-26T10:55:49.285Z,999.25
2019-05-26T10:56:49.310Z,999.23
2019-05-26T10:57:49.383Z,999.24
2019-05-26T10:58:49.354Z,999.21
2019-05-26T10:59:49.369Z,999.21
2019-05-26T11:00:49.393Z,999.20
2019-05-26T11:01:49.415Z,999.19
2019-05-26T11:02:49.444Z,999.17
2019-05-26T11:03:49.459Z,999.12
2019-05-26T11:04:49.481Z,999.14
2019-05-26T11:05:49.503Z,999.09
2019-05-26T11:06:49.538Z,999.12
2019-05-26T11:07:49.544Z,999.07
2019-05-26T11:08:49.565Z,999.05
2019-05-26T11:09:49.592Z,999.08
2019-05-26T11:10:49.607Z,999.03
2019-05-26T11:11:49.633Z,999.05
2019-05-26T11:12:49.680Z,999.01
2019-05-26T11:14:01.932Z,999.04
2019-05-26T11:14:49.697Z,999.03
2019-05-26T11:15:49.716Z,998.98
2019-05-26T11:16:49.740Z,998.97
2019-05-26T11:17:49.760Z,999.04
2019-05-26T11:18:49.778Z,998.95
2019-05-26T11:19:49.803Z,999.04
2019-05-26T11:20:49.823Z,999.02
2019-05-26T11:21:49.854Z,999.00
2019-05-26T11:22:49.864Z,999.00
2019-05-26T11:23:49.888Z,999.02
2019-05-26T11:24:49.912Z,999.00
2019-05-26T11:25:49.931Z,999.00
2019-05-26T11:26:49.964Z,998.94
2019-05-26T11:27:49.982Z,998.93
2019-05-26T11:28:49.996Z,998.96
2019-05-26T11:29:50.016Z,999.00
2019-05-26T11:30:50.038Z,998.96
2019-05-26T11:31:50.066Z,998.95
2019-05-26T11:32:50.085Z,998.92
2019-05-26T11:33:50.113Z,998.89
2019-05-26T11:35:01.098Z,998.86
2019-05-26T11:35:50.148Z,998.91
2019-05-26T11:36:50.171Z,998.86
2019-05-26T11:37:50.194Z,998.81
2019-05-26T11:38:50.214Z,998.84
2019-05-26T11:39:50.234Z,998.85
2019-05-26T11:40:50.271Z,998.81
2019-05-26T11:41:54.869Z,998.79
2019-05-26T11:42:50.312Z,998.77
2019-05-26T11:43:50.330Z,998.76
2019-05-26T11:44:50.356Z,998.73
2019-05-26T11:45:50.367Z,998.71
2019-05-26T11:46:50.391Z,998.73
2019-05-26T11:47:50.410Z,998.70
2019-05-26T11:48:50.426Z,998.71
2019-05-26T11:49:50.466Z,998.69
2019-05-26T11:50:50.487Z,998.70
2019-05-26T11:51:50.502Z,998.68
2019-05-26T11:52:50.517Z,998.69
2019-05-26T11:53:50.539Z,998.63
2019-05-26T11:54:50.567Z,998.68
2019-05-26T11:55:50.588Z,998.69
2019-05-26T11:56:50.612Z,998.65
2019-05-26T11:57:50.642Z,998.64
2019-05-26T11:58:50.655Z,998.63
2019-05-26T11:59:50.666Z,998.60
2019-05-26T12:00:50.703Z,998.62
2019-05-26T12:01:50.716Z,998.58
2019-05-26T12:02:50.738Z,998.58
2019-05-26T12:03:50.765Z,998.60
2019-05-26T12:04:50.788Z,998.60
2019-05-26T12:05:50.800Z,998.56
2019-05-26T12:06:50.812Z,998.58
2019-05-26T12:07:50.859Z,998.57
2019-05-26T12:08:50.896Z,998.59
2019-05-26T12:09:50.966Z,998.58
2019-05-26T12:10:51.037Z,998.59
2019-05-26T12:11:50.935Z,998.60